createdAt,value
2022-11-24T00:01:30.888Z,100.00
2022-11-24T00:04:00.949Z,100.00
2022-11-24T00:06:31.756Z,100.00
2022-11-24T00:09:00.748Z,100.00
2022-11-24T00:11:30.767Z,100.00
2022-11-24T00:14:00.214Z,100.00
2022-11-24T00:16:30.694Z,100.00
2022-11-24T00:19:01.232Z,100.00
2022-11-24T00:21:32.218Z,100.00
2022-11-24T00:24:01.274Z,100.00
2022-11-24T00:26:31.775Z,100.00
2022-11-24T00:29:02.084Z,100.00
2022-11-24T00:31:32.576Z,100.00
2022-11-24T00:34:02.431Z,100.00
2022-11-24T00:36:34.666Z,100.00
2022-11-24T00:39:05.683Z,100.00
2022-11-24T00:41:34.494Z,100.00
2022-11-24T00:44:03.413Z,100.00
2022-11-24T00:46:32.104Z,100.00
2022-11-24T00:49:01.622Z,100.00
2022-11-24T00:51:31.962Z,100.00
2022-11-24T00:54:01.468Z,100.00
2022-11-24T00:56:30.948Z,100.00
2022-11-24T00:58:59.539Z,100.00
2022-11-24T01:01:30.862Z,100.00
2022-11-24T01:04:01.914Z,100.00
2022-11-24T01:06:32.499Z,100.00
2022-11-24T01:09:01.273Z,100.00
2022-11-24T01:11:52.129Z,100.00
2022-11-24T01:14:21.179Z,100.00
2022-11-24T01:16:49.866Z,100.00
2022-11-24T01:19:18.526Z,100.00
2022-11-24T01:21:48.622Z,100.00
2022-11-24T01:24:17.543Z,100.00
2022-11-24T01:26:46.233Z,100.00
2022-11-24T01:29:14.833Z,100.00
2022-11-24T01:31:43.430Z,100.00
2022-11-24T01:34:12.939Z,100.00
2022-11-24T01:36:41.529Z,100.00
2022-11-24T01:39:11.692Z,100.00
2022-11-24T01:41:40.312Z,100.00
2022-11-24T01:44:23.216Z,100.00
2022-11-24T01:46:54.368Z,100.00
2022-11-24T01:49:26.029Z,100.00
2022-11-24T01:51:56.933Z,100.00
2022-11-24T01:54:30.078Z,100.00
2022-11-24T01:57:02.891Z,100.00
2022-11-24T01:59:31.791Z,100.00
2022-11-24T02:02:00.799Z,100.00
2022-11-24T02:04:31.330Z,100.00
2022-11-24T02:07:01.034Z,100.00
2022-11-24T02:09:34.383Z,100.00
2022-11-24T02:12:03.704Z,100.00
2022-11-24T02:14:32.559Z,100.00
2022-11-24T02:17:01.318Z,100.00
2022-11-24T02:19:38.109Z,100.00
2022-11-24T02:22:10.134Z,100.00
2022-11-24T02:24:42.867Z,99.91
2022-11-24T02:27:12.824Z,100.00
2022-11-24T02:29:41.913Z,100.00
2022-11-24T02:32:11.116Z,100.00
2022-11-24T02:34:39.705Z,100.00
2022-11-24T02:37:08.293Z,100.00
2022-11-24T02:39:36.964Z,100.00
2022-11-24T02:42:08.007Z,100.00
2022-11-24T02:44:39.572Z,100.00
2022-11-24T02:47:09.512Z,100.00
2022-11-24T02:49:38.168Z,100.00
2022-11-24T02:52:07.366Z,100.00
2022-11-24T02:54:36.756Z,99.89
2022-11-24T02:57:05.617Z,100.00
2022-11-24T02:59:34.232Z,100.00
2022-11-24T03:02:04.293Z,99.90
2022-11-24T03:04:33.206Z,99.99
2022-11-24T03:07:02.000Z,100.00
2022-11-24T03:09:31.498Z,100.00
2022-11-24T03:12:00.101Z,99.84
2022-11-24T03:14:28.702Z,99.41
2022-11-24T03:16:57.272Z,100.00
2022-11-24T03:19:27.222Z,100.00
2022-11-24T03:21:55.794Z,100.00
2022-11-24T03:24:24.374Z,100.00
2022-11-24T03:26:53.211Z,100.00
2022-11-24T03:29:21.826Z,100.00
2022-11-24T03:31:50.480Z,100.00
2022-11-24T03:34:19.042Z,100.00
2022-11-24T03:36:49.020Z,100.00
2022-11-24T03:39:17.660Z,100.00
2022-11-24T03:41:46.267Z,100.00
2022-11-24T03:44:14.848Z,100.00
2022-11-24T03:46:43.468Z,100.00
2022-11-24T03:49:12.135Z,100.00
2022-11-24T03:51:40.720Z,100.00
2022-11-24T03:54:10.710Z,100.00
2022-11-24T03:56:39.302Z,100.00
2022-11-24T03:59:08.673Z,100.00
2022-11-24T04:01:37.345Z,100.00
2022-11-24T04:04:06.337Z,100.00
2022-11-24T04:06:34.914Z,100.00
2022-11-24T04:09:03.544Z,100.00
2022-11-24T04:11:50.850Z,100.00
2022-11-24T04:14:19.465Z,100.00
2022-11-24T04:16:48.052Z,100.00
2022-11-24T04:19:16.685Z,100.00
2022-11-24T04:21:45.266Z,100.00
2022-11-24T04:24:14.665Z,100.00
2022-11-24T04:26:44.620Z,100.00
2022-11-24T04:29:13.400Z,100.00
2022-11-24T04:31:42.023Z,100.00
2022-11-24T04:34:11.960Z,100.00
2022-11-24T04:36:40.934Z,100.00
2022-11-24T04:39:22.739Z,100.00
2022-11-24T04:41:56.179Z,100.00
2022-11-24T04:44:24.805Z,100.00
2022-11-24T04:46:53.642Z,100.00
2022-11-24T04:49:22.263Z,100.00
2022-11-24T04:51:50.877Z,100.00
2022-11-24T04:54:19.468Z,100.00
2022-11-24T04:56:51.599Z,100.00
2022-11-24T04:59:21.544Z,100.00
2022-11-24T05:01:50.189Z,100.00
2022-11-24T05:04:20.318Z,100.00
2022-11-24T05:06:49.224Z,100.00
2022-11-24T05:09:18.626Z,100.00
2022-11-24T05:11:47.192Z,100.00
2022-11-24T05:14:15.774Z,100.00
2022-11-24T05:16:45.813Z,100.00
2022-11-24T05:19:14.378Z,100.00
2022-11-24T05:21:42.965Z,100.00
2022-11-24T05:24:11.591Z,100.00
2022-11-24T05:26:40.256Z,100.00
2022-11-24T05:29:08.844Z,100.00
2022-11-24T05:31:37.567Z,100.00
2022-11-24T05:34:07.588Z,100.00
2022-11-24T05:36:54.339Z,100.00
2022-11-24T05:39:23.038Z,100.00
2022-11-24T05:41:51.731Z,100.00
2022-11-24T05:44:20.318Z,100.00
2022-11-24T05:46:48.995Z,100.00
2022-11-24T05:49:18.998Z,100.00
2022-11-24T05:51:47.639Z,100.00
2022-11-24T05:54:16.331Z,100.00
2022-11-24T05:56:44.920Z,100.00
2022-11-24T05:59:13.506Z,100.00
2022-11-24T06:01:42.202Z,100.00
2022-11-24T06:04:10.853Z,100.00
2022-11-24T06:06:40.864Z,100.00
2022-11-24T06:09:09.558Z,100.00
2022-11-24T06:11:38.161Z,100.00
2022-11-24T06:14:10.962Z,100.00
2022-11-24T06:16:40.138Z,100.00
2022-11-24T06:19:09.990Z,100.00
2022-11-24T06:21:39.949Z,100.00
2022-11-24T06:24:09.361Z,100.00
2022-11-24T06:26:37.975Z,100.00
2022-11-24T06:29:06.573Z,100.00
2022-11-24T06:31:35.384Z,100.00
2022-11-24T06:34:06.998Z,100.00
2022-11-24T06:36:35.629Z,100.00
2022-11-24T06:39:06.655Z,100.00
2022-11-24T06:41:35.245Z,100.00
2022-11-24T06:44:04.746Z,100.00
2022-11-24T06:46:33.686Z,100.00
2022-11-24T06:49:02.352Z,100.00
2022-11-24T06:51:31.011Z,100.00
2022-11-24T06:53:59.709Z,100.00
2022-11-24T06:56:29.771Z,100.00
2022-11-24T06:58:58.341Z,100.00
2022-11-24T07:01:28.700Z,100.00
2022-11-24T07:03:58.011Z,100.00
2022-11-24T07:06:28.342Z,100.00
2022-11-24T07:08:57.158Z,100.00
2022-11-24T07:11:26.784Z,100.00
2022-11-24T07:14:00.178Z,100.00
2022-11-24T07:16:29.901Z,100.00
2022-11-24T07:18:59.188Z,100.00
2022-11-24T07:21:28.853Z,100.00
2022-11-24T07:23:58.733Z,100.00
2022-11-24T07:26:27.710Z,100.00
2022-11-24T07:28:57.695Z,100.00
2022-11-24T07:31:26.424Z,100.00
2022-11-24T07:33:56.206Z,100.00
2022-11-24T07:36:25.479Z,99.54
2022-11-24T07:38:54.128Z,99.39
2022-11-24T07:41:22.787Z,99.16
2022-11-24T07:43:51.848Z,100.00
2022-11-24T07:46:22.063Z,100.00
2022-11-24T07:48:50.773Z,100.00
2022-11-24T07:51:19.443Z,100.00
2022-11-24T07:53:48.098Z,100.00
2022-11-24T07:56:16.787Z,100.00
2022-11-24T07:58:51.231Z,100.00
2022-11-24T08:01:22.918Z,100.00
2022-11-24T08:03:51.641Z,100.00
2022-11-24T08:06:26.517Z,100.00
2022-11-24T08:08:58.175Z,100.00
2022-11-24T08:11:27.303Z,100.00
2022-11-24T08:13:55.986Z,100.00
2022-11-24T08:16:26.042Z,100.00
2022-11-24T08:18:56.536Z,100.00
2022-11-24T08:21:25.632Z,100.00
2022-11-24T08:23:57.702Z,100.00
2022-11-24T08:26:27.187Z,100.00
2022-11-24T08:28:57.755Z,100.00
2022-11-24T08:31:33.664Z,100.00
2022-11-24T08:34:03.385Z,100.00
2022-11-24T08:36:32.200Z,100.00
2022-11-24T08:39:01.780Z,100.00
2022-11-24T08:41:30.904Z,100.00
2022-11-24T08:43:59.596Z,100.00
2022-11-24T08:46:29.583Z,100.00
2022-11-24T08:48:58.225Z,100.00
2022-11-24T08:51:27.985Z,100.00
2022-11-24T08:53:58.172Z,100.00
2022-11-24T08:56:28.085Z,100.00
2022-11-24T08:58:56.909Z,100.00
2022-11-24T09:01:26.187Z,100.00
2022-11-24T09:03:56.475Z,100.00
2022-11-24T09:06:27.157Z,100.00
2022-11-24T09:08:56.510Z,100.00
2022-11-24T09:11:26.172Z,100.00
2022-11-24T09:13:55.185Z,100.00
2022-11-24T09:16:25.971Z,100.00
2022-11-24T09:19:00.149Z,100.00
2022-11-24T09:21:29.953Z,100.00
2022-11-24T09:23:58.650Z,100.00
2022-11-24T09:26:29.348Z,100.00
2022-11-24T09:28:59.432Z,100.00
2022-11-24T09:31:30.861Z,100.00
2022-11-24T09:34:01.035Z,100.00
2022-11-24T09:36:31.316Z,100.00
2022-11-24T09:39:00.187Z,100.00
2022-11-24T09:41:39.417Z,100.00
2022-11-24T09:44:33.147Z,100.00
2022-11-24T09:47:09.716Z,100.00
2022-11-24T09:49:50.964Z,100.00
2022-11-24T09:52:38.832Z,100.00
2022-11-24T09:55:24.390Z,100.00
2022-11-24T09:58:04.151Z,100.00
2022-11-24T10:00:34.965Z,100.00
2022-11-24T10:03:03.709Z,100.00
2022-11-24T10:05:35.883Z,100.00
2022-11-24T10:08:12.609Z,100.00
2022-11-24T10:10:47.805Z,100.00
2022-11-24T10:13:27.952Z,100.00
2022-11-24T10:16:00.858Z,100.00
2022-11-24T10:18:45.005Z,100.00
2022-11-24T10:21:27.612Z,100.00
2022-11-24T10:24:14.203Z,100.00
2022-11-24T10:26:49.461Z,100.00
2022-11-24T10:29:26.191Z,100.00
2022-11-24T10:31:56.827Z,100.00
2022-11-24T10:34:29.865Z,100.00
2022-11-24T10:37:03.987Z,99.51
2022-11-24T10:39:36.785Z,99.72
2022-11-24T10:42:11.581Z,100.00
2022-11-24T10:44:40.366Z,100.00
2022-11-24T10:47:18.541Z,100.00
2022-11-24T10:49:53.162Z,100.00
2022-11-24T10:52:23.680Z,100.00
2022-11-24T10:54:57.343Z,100.00
2022-11-24T10:57:31.375Z,97.21
2022-11-24T11:00:00.255Z,97.89
2022-11-24T11:02:35.188Z,98.96
2022-11-24T11:05:28.071Z,100.00
2022-11-24T11:08:19.753Z,99.18
2022-11-24T11:10:50.228Z,98.31
2022-11-24T11:13:26.879Z,97.79
2022-11-24T11:15:56.459Z,96.98
2022-11-24T11:18:31.338Z,97.79
2022-11-24T11:21:02.139Z,96.23
2022-11-24T11:23:35.644Z,96.13
2022-11-24T11:26:30.988Z,97.53
2022-11-24T11:34:49.367Z,100.00
2022-11-24T11:37:19.860Z,99.46
2022-11-24T11:39:51.770Z,97.75
2022-11-24T11:43:00.196Z,98.20
2022-11-24T11:45:18.264Z,97.20
2022-11-24T11:47:51.475Z,96.86
2022-11-24T11:50:25.751Z,94.17
2022-11-24T11:53:11.573Z,95.46
2022-11-24T11:55:51.392Z,94.87
2022-11-24T11:58:42.580Z,94.43
2022-11-24T12:01:19.331Z,94.70
2022-11-24T12:03:57.717Z,96.63
2022-11-24T12:06:38.838Z,94.55
2022-11-24T12:09:21.155Z,94.46
2022-11-24T12:12:04.064Z,95.04
2022-11-24T12:14:39.423Z,96.54
2022-11-24T12:17:14.452Z,95.47
2022-11-24T12:19:51.905Z,96.52
2022-11-24T12:22:26.579Z,91.37
2022-11-24T12:24:58.752Z,91.07
2022-11-24T12:27:40.250Z,92.92
2022-11-24T12:30:14.063Z,94.58
2022-11-24T12:32:57.911Z,93.87
2022-11-24T12:35:31.250Z,92.13
2022-11-24T12:38:06.972Z,93.57
2022-11-24T12:40:46.832Z,91.00
2022-11-24T12:43:21.277Z,89.85
2022-11-24T12:45:57.138Z,88.99
2022-11-24T12:48:43.125Z,89.53
2022-11-24T12:51:17.452Z,92.82
2022-11-24T12:53:47.112Z,93.07
2022-11-24T12:56:17.383Z,90.09
2022-11-24T12:58:53.500Z,91.03
2022-11-24T13:01:30.381Z,88.88
2022-11-24T13:04:09.470Z,86.09
2022-11-24T13:06:49.354Z,85.53
2022-11-24T13:09:18.773Z,85.24
2022-11-24T13:11:48.547Z,82.39
2022-11-24T13:14:21.525Z,83.92
2022-11-24T13:19:44.413Z,82.73
2022-11-24T13:22:18.497Z,82.89
2022-11-24T13:24:47.538Z,82.00
2022-11-24T13:27:29.129Z,80.99
2022-11-24T13:29:59.182Z,79.36
2022-11-24T13:33:01.730Z,79.22
2022-11-24T13:35:30.930Z,79.66
2022-11-24T13:37:59.654Z,75.20
2022-11-24T13:41:06.252Z,70.54
2022-11-24T13:43:37.969Z,71.02
2022-11-24T13:46:10.809Z,73.33
2022-11-24T13:49:01.353Z,73.43
2022-11-24T13:51:30.186Z,72.10
2022-11-24T13:54:00.869Z,72.84
2022-11-24T13:56:31.105Z,77.97
2022-11-24T13:59:02.047Z,79.42
2022-11-24T14:01:34.145Z,84.41
2022-11-24T14:07:05.549Z,78.18
2022-11-24T14:09:38.738Z,80.24
2022-11-24T14:12:14.611Z,81.53
2022-11-24T14:14:44.295Z,82.07
2022-11-24T14:17:18.073Z,81.83
2022-11-24T14:19:48.061Z,81.70
2022-11-24T14:22:18.949Z,77.63
2022-11-24T14:24:53.260Z,77.48
2022-11-24T14:27:27.647Z,74.69
2022-11-24T14:29:57.308Z,78.19
2022-11-24T14:32:27.492Z,74.04
2022-11-24T14:34:57.082Z,73.24
2022-11-24T14:37:25.955Z,73.87
2022-11-24T14:39:54.676Z,77.11
2022-11-24T14:42:25.036Z,76.67
2022-11-24T14:44:55.598Z,78.82
2022-11-24T14:47:31.715Z,77.89
2022-11-24T14:50:10.398Z,79.36
2022-11-24T14:52:44.900Z,81.02
2022-11-24T14:55:26.479Z,79.52
2022-11-24T14:57:55.238Z,79.78
2022-11-24T15:00:28.412Z,80.58
2022-11-24T15:03:13.492Z,83.41
2022-11-24T15:05:53.417Z,82.83
2022-11-24T15:08:22.449Z,81.57
2022-11-24T15:10:57.140Z,79.50
2022-11-24T15:13:26.262Z,77.55
2022-11-24T15:16:02.073Z,77.50
2022-11-24T15:18:38.881Z,77.64
2022-11-24T15:21:07.906Z,78.34
2022-11-24T15:23:41.794Z,80.36
2022-11-24T15:26:32.196Z,77.47
2022-11-24T15:29:04.113Z,74.65
2022-11-24T15:31:33.397Z,74.56
2022-11-24T15:34:03.550Z,73.99
2022-11-24T15:36:32.348Z,73.99
2022-11-24T15:39:01.020Z,76.34
2022-11-24T15:41:31.141Z,76.87
2022-11-24T15:44:00.276Z,78.25
2022-11-24T15:46:29.764Z,79.23
2022-11-24T15:48:58.502Z,80.53
2022-11-24T15:51:28.507Z,80.12
2022-11-24T15:54:00.978Z,79.87
2022-11-24T15:56:32.030Z,81.10
2022-11-24T15:59:01.183Z,82.15
2022-11-24T16:01:32.267Z,81.78
2022-11-24T16:04:01.963Z,82.62
2022-11-24T16:06:32.041Z,82.41
2022-11-24T16:09:00.807Z,82.36
2022-11-24T16:11:29.457Z,83.05
2022-11-24T16:13:58.184Z,82.79
2022-11-24T16:16:27.008Z,83.45
2022-11-24T16:18:55.791Z,84.74
2022-11-24T16:21:24.511Z,84.42
2022-11-24T16:23:55.123Z,84.24
2022-11-24T16:26:23.820Z,84.34
2022-11-24T16:28:52.495Z,84.20
2022-11-24T16:31:21.235Z,83.45
2022-11-24T16:33:50.125Z,83.52
2022-11-24T16:36:18.785Z,82.85
2022-11-24T16:38:47.546Z,83.19
2022-11-24T16:41:17.568Z,83.56
2022-11-24T16:43:46.255Z,83.40
2022-11-24T16:46:19.577Z,83.71
2022-11-24T16:48:49.532Z,84.26
2022-11-24T16:51:19.682Z,85.09
2022-11-24T16:53:48.675Z,85.41
2022-11-24T16:56:18.715Z,86.08
2022-11-24T16:58:47.330Z,85.51
2022-11-24T17:01:16.071Z,86.98
2022-11-24T17:03:44.783Z,87.71
2022-11-24T17:06:15.667Z,87.85
2022-11-24T17:08:45.487Z,87.63
2022-11-24T17:11:16.099Z,87.37
2022-11-24T17:13:47.037Z,87.53
2022-11-24T17:16:17.073Z,87.51
2022-11-24T17:18:46.270Z,87.77
2022-11-24T17:21:16.711Z,87.42
2022-11-24T17:23:45.407Z,87.75
2022-11-24T17:26:15.526Z,87.36
2022-11-24T17:28:45.993Z,88.15
2022-11-24T17:31:18.433Z,87.98
2022-11-24T17:33:47.152Z,87.75
2022-11-24T17:36:16.033Z,87.49
2022-11-24T17:38:44.708Z,87.26
2022-11-24T17:41:13.541Z,87.87
2022-11-24T17:43:42.257Z,88.59
2022-11-24T17:46:12.379Z,89.26
2022-11-24T17:48:41.209Z,88.81
2022-11-24T17:51:13.257Z,88.96
2022-11-24T17:53:43.218Z,88.67
2022-11-24T17:56:14.059Z,89.21
2022-11-24T17:58:43.455Z,89.72
2022-11-24T18:01:14.267Z,89.83
2022-11-24T18:03:43.352Z,90.02
2022-11-24T18:06:13.478Z,90.24
2022-11-24T18:08:43.151Z,90.46
2022-11-24T18:11:12.908Z,90.59
2022-11-24T18:13:58.546Z,90.95
2022-11-24T18:16:31.322Z,90.71
2022-11-24T18:19:10.032Z,91.21
2022-11-24T18:21:39.981Z,91.20
2022-11-24T18:24:09.346Z,92.08
2022-11-24T18:26:38.353Z,92.58
2022-11-24T18:29:07.799Z,92.56
2022-11-24T18:31:38.241Z,92.71
2022-11-24T18:34:07.590Z,93.17
2022-11-24T18:36:36.873Z,93.16
2022-11-24T18:39:07.467Z,93.55
2022-11-24T18:41:36.636Z,93.81
2022-11-24T18:44:08.422Z,94.05
2022-11-24T18:46:39.178Z,93.96
2022-11-24T18:49:08.012Z,94.10
2022-11-24T18:51:36.737Z,94.10
2022-11-24T18:54:05.887Z,94.39
2022-11-24T18:56:34.594Z,94.46
2022-11-24T18:59:03.327Z,94.32
2022-11-24T19:01:32.321Z,94.34
2022-11-24T19:04:03.375Z,93.99
2022-11-24T19:06:33.732Z,93.68
2022-11-24T19:09:05.458Z,93.58
2022-11-24T19:11:35.624Z,93.62
2022-11-24T19:14:05.114Z,94.07
2022-11-24T19:16:34.402Z,93.45
2022-11-24T19:19:05.091Z,93.71
2022-11-24T19:21:35.413Z,94.02
2022-11-24T19:24:05.822Z,94.48
2022-11-24T19:26:35.839Z,94.23
2022-11-24T19:29:05.519Z,92.76
2022-11-24T19:31:35.290Z,93.19
2022-11-24T19:34:05.902Z,94.01
2022-11-24T19:36:34.845Z,93.31
2022-11-24T19:39:04.773Z,93.38
2022-11-24T19:41:34.261Z,93.85
2022-11-24T19:44:03.071Z,94.04
2022-11-24T19:46:31.840Z,94.53
2022-11-24T19:49:01.584Z,94.03
2022-11-24T19:51:33.245Z,94.63
2022-11-24T19:54:03.517Z,94.33
2022-11-24T19:56:35.891Z,94.16
2022-11-24T19:59:05.481Z,94.76
2022-11-24T20:01:35.154Z,94.47
2022-11-24T20:04:05.996Z,94.64
2022-11-24T20:06:37.504Z,94.50
2022-11-24T20:09:08.098Z,94.30
2022-11-24T20:11:36.995Z,94.32
2022-11-24T20:14:06.571Z,94.47
2022-11-24T20:16:36.577Z,94.57
2022-11-24T20:19:07.211Z,94.86
2022-11-24T20:21:38.317Z,94.73
2022-11-24T20:24:11.013Z,94.64
2022-11-24T20:26:41.146Z,94.93
2022-11-24T20:29:11.421Z,95.09
2022-11-24T20:31:41.684Z,95.24
2022-11-24T20:34:11.312Z,95.52
2022-11-24T20:36:42.891Z,95.90
2022-11-24T20:39:15.038Z,95.92
2022-11-24T20:41:43.832Z,96.18
2022-11-24T20:44:15.202Z,96.33
2022-11-24T20:46:45.341Z,95.32
2022-11-24T20:49:15.894Z,95.57
2022-11-24T20:51:47.658Z,96.03
2022-11-24T20:54:20.157Z,96.40
2022-11-24T20:56:49.133Z,96.50
2022-11-24T20:59:21.347Z,96.17
2022-11-24T21:01:51.305Z,96.13
2022-11-24T21:04:21.389Z,96.34
2022-11-24T21:06:51.771Z,96.64
2022-11-24T21:09:20.504Z,96.56
2022-11-24T21:11:49.153Z,96.38
2022-11-24T21:14:17.986Z,96.44
2022-11-24T21:16:46.791Z,97.18
2022-11-24T21:19:18.164Z,96.77
2022-11-24T21:21:47.716Z,96.86
2022-11-24T21:24:19.261Z,97.23
2022-11-24T21:26:49.030Z,97.09
2022-11-24T21:29:20.271Z,96.87
2022-11-24T21:31:49.570Z,97.16
2022-11-24T21:34:19.418Z,97.01
2022-11-24T21:36:48.285Z,97.20
2022-11-24T21:39:18.740Z,97.44
2022-11-24T21:41:47.617Z,96.44
2022-11-24T21:44:16.551Z,95.96
2022-11-24T21:46:51.137Z,96.25
2022-11-24T21:49:24.405Z,96.53
2022-11-24T21:51:55.822Z,96.79
2022-11-24T21:54:26.228Z,96.84
2022-11-24T21:56:55.443Z,96.53
2022-11-24T21:59:24.142Z,96.48
2022-11-24T22:01:52.925Z,96.39
2022-11-24T22:04:21.700Z,95.33
2022-11-24T22:06:50.370Z,96.38
2022-11-24T22:09:19.033Z,96.27
2022-11-24T22:11:52.016Z,97.02
2022-11-24T22:14:20.622Z,97.08
2022-11-24T22:16:49.312Z,96.65
2022-11-24T22:19:18.211Z,96.78
2022-11-24T22:21:46.962Z,97.51
2022-11-24T22:24:15.895Z,97.13
2022-11-24T22:26:44.653Z,97.45
2022-11-24T22:29:14.768Z,97.65
2022-11-24T22:31:43.480Z,97.12
2022-11-24T22:34:12.278Z,97.44
2022-11-24T22:36:41.034Z,97.56
2022-11-24T22:39:12.924Z,97.22
2022-11-24T22:41:41.559Z,97.46
2022-11-24T22:44:10.388Z,96.93
2022-11-24T22:46:40.443Z,97.21
2022-11-24T22:49:11.167Z,97.58
2022-11-24T22:51:40.582Z,97.42
2022-11-24T22:54:13.008Z,97.51
2022-11-24T22:56:41.667Z,97.56
2022-11-24T22:59:10.328Z,97.31
2022-11-24T23:01:40.335Z,97.47
2022-11-24T23:04:09.010Z,97.26
2022-11-24T23:06:37.997Z,97.19
2022-11-24T23:09:06.884Z,97.08
2022-11-24T23:11:38.585Z,96.81
2022-11-24T23:14:08.343Z,97.05
2022-11-24T23:16:37.080Z,97.66
2022-11-24T23:19:07.431Z,97.45
2022-11-24T23:21:38.866Z,97.30
2022-11-24T23:24:09.018Z,96.88
2022-11-24T23:26:39.591Z,97.16
2022-11-24T23:29:08.892Z,97.29
2022-11-24T23:31:39.704Z,96.71
2022-11-24T23:34:10.137Z,95.89
2022-11-24T23:36:39.003Z,96.37
2022-11-24T23:39:09.122Z,96.84
2022-11-24T23:41:37.730Z,95.82
2022-11-24T23:44:07.173Z,95.95
2022-11-24T23:46:35.801Z,96.95
2022-11-24T23:49:04.843Z,96.92
2022-11-24T23:51:34.884Z,97.88
2022-11-24T23:54:03.650Z,97.11
2022-11-24T23:56:33.552Z,96.73
2022-11-24T23:59:03.074Z,97.79
